Time;durP1;ratioP1;P1;durP2;ratioP2;P2;SDS_P1;SDS_P2;PMS_P1;PMS_P2;Temp;Humidity;BMP_temperature;BMP_pressure;BME280_temperature;BME280_humidity;BME280_pressure;Samples;Min_cycle;Max_cycle;Signal;HPM_P1;HPM_P2
2022/07/27 00:02:09;;;;;;;;;;;26.60;88.40;;;;;;5076982;28;20401;-66
2022/07/27 00:04:35;;;;;;;;;;;26.60;88.40;;;;;;5076080;28;19931;-69
2022/07/27 00:07:00;;;;;;;;;;;26.50;88.40;;;;;;5075762;28;20279;-68
2022/07/27 00:09:26;;;;;;;;;;;26.50;88.40;;;;;;5076333;28;20005;-69
2022/07/27 00:11:51;;;;;;;;;;;26.60;88.50;;;;;;5076049;28;19931;-68
2022/07/27 00:14:17;;;;;;;;;;;26.60;88.50;;;;;;5075958;28;19962;-68
2022/07/27 00:16:42;;;;;;;;;;;26.50;88.40;;;;;;5075985;28;19916;-67
2022/07/27 00:19:08;;;;;;;;;;;26.60;88.50;;;;;;5075737;28;19958;-69
2022/07/27 00:21:33;;;;;;;;;;;26.50;88.40;;;;;;5075795;28;19924;-68
2022/07/27 00:23:59;;;;;;;;;;;26.50;88.40;;;;;;5075710;28;19912;-68
2022/07/27 00:26:24;;;;;;;;;;;26.50;88.40;;;;;;5075460;28;20358;-69
2022/07/27 00:28:50;;;;;;;;;;;26.50;88.40;;;;;;5075350;28;19961;-69
2022/07/27 00:31:16;;;;;;;;;;;26.50;88.40;;;;;;5075334;28;19961;-68
2022/07/27 00:33:41;;;;;;;;;;;26.50;88.50;;;;;;5075544;28;20290;-68
2022/07/27 00:36:07;;;;;;;;;;;26.50;88.40;;;;;;5075538;28;19970;-68
2022/07/27 00:38:32;;;;;;;;;;;26.50;88.40;;;;;;5075427;28;20070;-68
2022/07/27 00:40:58;;;;;;;;;;;26.50;88.50;;;;;;5075424;28;20385;-68
2022/07/27 00:43:23;;;;;;;;;;;26.50;88.50;;;;;;5075110;28;19908;-68
2022/07/27 00:45:49;;;;;;;;;;;26.50;88.50;;;;;;5057421;28;20347;-68
2022/07/27 00:48:14;;;;;;;;;;;26.50;88.40;;;;;;5075201;28;19966;-68
2022/07/27 00:50:40;;;;;;;;;;;26.50;88.40;;;;;;5075464;28;20351;-69
2022/07/27 00:53:07;;;;;;;;;;;26.50;88.50;;;;;;5074797;28;19954;-68
2022/07/27 00:55:33;;;;;;;;;;;26.50;88.50;;;;;;5074831;28;19947;-68
2022/07/27 00:57:58;;;;;;;;;;;26.50;88.40;;;;;;5075013;28;19908;-69
2022/07/27 01:00:24;;;;;;;;;;;26.50;88.50;;;;;;5074520;28;20011;-68
2022/07/27 01:02:50;;;;;;;;;;;26.50;88.50;;;;;;5074658;28;19913;-68
2022/07/27 01:05:15;;;;;;;;;;;26.50;88.50;;;;;;5074545;28;19909;-68
2022/07/27 01:07:41;;;;;;;;;;;26.50;88.50;;;;;;5074956;28;19994;-68
2022/07/27 01:10:07;;;;;;;;;;;26.50;88.50;;;;;;5074767;28;19955;-68
2022/07/27 01:12:32;;;;;;;;;;;26.50;88.50;;;;;;5074851;28;19916;-68
2022/07/27 01:14:58;;;;;;;;;;;26.50;88.50;;;;;;5074759;28;19909;-68
2022/07/27 01:17:25;;;;;;;;;;;26.50;88.50;;;;;;5074641;28;19909;-68
2022/07/27 01:19:51;;;;;;;;;;;26.50;88.50;;;;;;5074555;28;19920;-68
2022/07/27 01:22:16;;;;;;;;;;;26.50;88.50;;;;;;5074994;28;19909;-68
2022/07/27 01:24:42;;;;;;;;;;;26.50;88.50;;;;;;5074440;28;19952;-68
2022/07/27 01:27:07;;;;;;;;;;;26.50;88.50;;;;;;5074301;28;20287;-68
2022/07/27 01:29:34;;;;;;;;;;;26.50;88.50;;;;;;5055960;28;19915;-69
2022/07/27 01:31:59;;;;;;;;;;;26.50;88.50;;;;;;5074382;28;19909;-68
2022/07/27 01:34:25;;;;;;;;;;;26.50;88.50;;;;;;5056517;28;19958;-68
2022/07/27 01:36:50;;;;;;;;;;;26.40;88.40;;;;;;5074123;28;20274;-68
2022/07/27 01:39:17;;;;;;;;;;;26.50;88.50;;;;;;5074258;28;19916;-68
2022/07/27 01:41:42;;;;;;;;;;;26.40;88.50;;;;;;5074283;28;20354;-68
2022/07/27 01:44:08;;;;;;;;;;;26.40;88.50;;;;;;5074682;28;19908;-68
2022/07/27 01:46:33;;;;;;;;;;;26.40;88.50;;;;;;5074596;28;19909;-68
2022/07/27 01:48:59;;;;;;;;;;;26.40;88.60;;;;;;5073934;28;19962;-68
2022/07/27 01:51:24;;;;;;;;;;;26.40;88.50;;;;;;5073870;28;20049;-68
2022/07/27 01:53:50;;;;;;;;;;;26.40;88.50;;;;;;5074089;28;19920;-68
2022/07/27 01:56:15;;;;;;;;;;;26.40;88.50;;;;;;5056197;28;19909;-67
2022/07/27 01:58:42;;;;;;;;;;;26.40;88.50;;;;;;5073964;28;19923;-68
2022/07/27 02:01:07;;;;;;;;;;;26.40;88.50;;;;;;5073766;28;19909;-69
2022/07/27 02:03:35;;;;;;;;;;;26.40;88.50;;;;;;5073365;28;20391;-68
2022/07/27 02:06:00;;;;;;;;;;;26.40;88.60;;;;;;5074055;28;19944;-68
2022/07/27 02:08:26;;;;;;;;;;;26.40;88.60;;;;;;5073733;28;19909;-68
2022/07/27 02:13:36;;;;;;;;;;;26.40;88.60;;;;;;5074067;28;19915;-68
2022/07/27 02:16:02;;;;;;;;;;;26.40;88.70;;;;;;5073696;28;20431;-68
2022/07/27 02:18:27;;;;;;;;;;;26.40;88.70;;;;;;5073548;28;19913;-68
2022/07/27 02:20:53;;;;;;;;;;;26.40;88.70;;;;;;5073689;28;19921;-68
2022/07/27 02:23:18;;;;;;;;;;;26.40;88.70;;;;;;5073929;28;19909;-68
2022/07/27 02:25:44;;;;;;;;;;;26.40;88.70;;;;;;5056062;28;20371;-67
2022/07/27 02:28:09;;;;;;;;;;;26.40;88.70;;;;;;5073858;28;19912;-68
2022/07/27 02:30:35;;;;;;;;;;;26.40;88.70;;;;;;5073558;28;20358;-68
2022/07/27 02:33:00;;;;;;;;;;;26.40;88.70;;;;;;5073638;28;19932;-68
2022/07/27 02:35:26;;;;;;;;;;;26.40;88.70;;;;;;5073783;28;20006;-68
2022/07/27 02:37:51;;;;;;;;;;;26.40;88.70;;;;;;5073515;28;20351;-68
2022/07/27 02:40:17;;;;;;;;;;;26.40;88.60;;;;;;5055973;28;19982;-67
2022/07/27 02:42:43;;;;;;;;;;;26.40;88.70;;;;;;5077672;28;19916;-69
2022/07/27 02:45:08;;;;;;;;;;;26.40;88.60;;;;;;5077595;28;19909;-69
2022/07/27 02:47:34;;;;;;;;;;;26.40;88.60;;;;;;5077478;28;19928;-68
2022/07/27 02:50:00;;;;;;;;;;;26.40;88.70;;;;;;5077238;28;19952;-68
2022/07/27 02:52:25;;;;;;;;;;;26.40;88.70;;;;;;5077232;28;19930;-68
2022/07/27 02:54:51;;;;;;;;;;;26.40;88.70;;;;;;5077146;28;20434;-68
2022/07/27 02:57:16;;;;;;;;;;;26.40;88.60;;;;;;5059457;28;19908;-68
2022/07/27 02:59:42;;;;;;;;;;;26.40;88.70;;;;;;5059214;28;20369;-68
2022/07/27 03:02:07;;;;;;;;;;;26.40;89.20;;;;;;5077320;28;19912;-68
2022/07/27 03:04:33;;;;;;;;;;;26.40;88.70;;;;;;5077199;28;20012;-68
2022/07/27 03:06:58;;;;;;;;;;;26.40;88.70;;;;;;5077237;28;19908;-68
2022/07/27 03:09:24;;;;;;;;;;;26.40;88.70;;;;;;5077107;28;19916;-68
2022/07/27 03:11:49;;;;;;;;;;;26.40;88.70;;;;;;5059174;28;19956;-68
2022/07/27 03:14:15;;;;;;;;;;;26.40;88.60;;;;;;5076999;28;19912;-67
2022/07/27 03:16:40;;;;;;;;;;;26.40;88.70;;;;;;5058743;28;19909;-68
2022/07/27 03:19:06;;;;;;;;;;;26.40;88.70;;;;;;5076597;28;19916;-69
2022/07/27 03:21:31;;;;;;;;;;;26.30;88.60;;;;;;5077001;28;19983;-68
2022/07/27 03:23:56;;;;;;;;;;;26.40;88.70;;;;;;5076815;28;19908;-68
2022/07/27 03:26:22;;;;;;;;;;;26.40;88.70;;;;;;5076593;28;19915;-68
2022/07/27 03:28:47;;;;;;;;;;;26.30;88.60;;;;;;5058816;28;19916;-68
2022/07/27 03:31:13;;;;;;;;;;;26.40;88.60;;;;;;5077056;28;20332;-68
2022/07/27 03:33:39;;;;;;;;;;;26.40;88.60;;;;;;5076326;28;19908;-68
2022/07/27 03:36:04;;;;;;;;;;;26.30;88.60;;;;;;5058240;28;20414;-68
2022/07/27 03:38:30;;;;;;;;;;;26.40;88.70;;;;;;5058562;28;19923;-68
2022/07/27 03:40:55;;;;;;;;;;;26.30;88.60;;;;;;5076617;28;19912;-68
2022/07/27 03:43:21;;;;;;;;;;;26.40;88.70;;;;;;5076219;28;19908;-68
2022/07/27 03:45:46;;;;;;;;;;;26.40;88.60;;;;;;5076221;28;19915;-67
2022/07/27 03:48:12;;;;;;;;;;;26.30;88.50;;;;;;5076415;28;19909;-68
2022/07/27 03:50:37;;;;;;;;;;;26.30;88.60;;;;;;5076286;28;20309;-68
2022/07/27 03:53:03;;;;;;;;;;;26.30;88.60;;;;;;5057176;28;19909;-69
2022/07/27 03:55:28;;;;;;;;;;;26.30;88.60;;;;;;5076172;28;19954;-68
2022/07/27 03:57:54;;;;;;;;;;;26.30;88.60;;;;;;5058493;28;20263;-68
2022/07/27 04:00:20;;;;;;;;;;;26.30;88.60;;;;;;5076005;28;20340;-68
2022/07/27 04:02:45;;;;;;;;;;;26.30;88.60;;;;;;5058156;28;20012;-68
2022/07/27 04:05:11;;;;;;;;;;;26.30;88.60;;;;;;5058038;28;20314;-68
2022/07/27 04:07:36;;;;;;;;;;;26.30;88.60;;;;;;5076025;28;19915;-68
2022/07/27 04:10:02;;;;;;;;;;;26.30;88.60;;;;;;5075610;28;19908;-68
2022/07/27 04:12:28;;;;;;;;;;;26.30;89.10;;;;;;5075875;28;19908;-68
2022/07/27 04:14:53;;;;;;;;;;;26.30;88.50;;;;;;5075751;28;19932;-68
2022/07/27 04:17:19;;;;;;;;;;;26.30;88.50;;;;;;5075739;28;20053;-68
2022/07/27 04:19:44;;;;;;;;;;;26.30;88.50;;;;;;5075523;28;19927;-68
2022/07/27 04:22:10;;;;;;;;;;;26.40;88.50;;;;;;5075788;28;19978;-68
2022/07/27 04:24:35;;;;;;;;;;;26.30;88.50;;;;;;5075669;28;19909;-68
2022/07/27 04:27:01;;;;;;;;;;;26.30;88.50;;;;;;5075558;28;20392;-68
2022/07/27 04:29:27;;;;;;;;;;;26.30;88.50;;;;;;5075407;28;19908;-69
2022/07/27 04:31:52;;;;;;;;;;;26.30;88.50;;;;;;5075261;28;20425;-69
2022/07/27 04:34:18;;;;;;;;;;;26.30;88.40;;;;;;5075305;28;19912;-68
2022/07/27 04:36:43;;;;;;;;;;;26.40;88.50;;;;;;5075368;28;19909;-69
2022/07/27 04:39:09;;;;;;;;;;;26.30;88.40;;;;;;5057113;28;19912;-68
2022/07/27 04:41:34;;;;;;;;;;;26.30;88.40;;;;;;5075167;28;19912;-68
2022/07/27 04:44:00;;;;;;;;;;;26.30;88.40;;;;;;5057078;28;19913;-68
2022/07/27 04:46:26;;;;;;;;;;;26.30;88.50;;;;;;5057164;28;19991;-68
2022/07/27 04:48:51;;;;;;;;;;;26.30;88.50;;;;;;5057089;28;19931;-68
2022/07/27 04:51:17;;;;;;;;;;;26.30;88.50;;;;;;5074730;28;19998;-68
2022/07/27 04:53:43;;;;;;;;;;;26.30;88.40;;;;;;5075090;28;19909;-69
2022/07/27 04:56:08;;;;;;;;;;;26.30;88.50;;;;;;5074589;28;19931;-68
2022/07/27 04:58:34;;;;;;;;;;;26.30;89.00;;;;;;5056591;28;19917;-67
2022/07/27 05:00:59;;;;;;;;;;;26.30;88.40;;;;;;5074504;28;19913;-68
2022/07/27 05:03:25;;;;;;;;;;;26.30;88.50;;;;;;5074445;28;20437;-68
2022/07/27 05:05:51;;;;;;;;;;;26.30;88.40;;;;;;5073878;28;19915;-68
2022/07/27 05:08:17;;;;;;;;;;;26.30;88.50;;;;;;5056755;28;19944;-69
2022/07/27 05:10:42;;;;;;;;;;;26.30;88.40;;;;;;5074604;28;19920;-68
2022/07/27 05:13:08;;;;;;;;;;;26.30;88.40;;;;;;5074212;28;19931;-69
2022/07/27 05:15:33;;;;;;;;;;;26.30;88.40;;;;;;5056499;28;19908;-68
2022/07/27 05:17:59;;;;;;;;;;;26.30;88.40;;;;;;5074168;28;19908;-68
2022/07/27 05:20:24;;;;;;;;;;;26.30;88.30;;;;;;5073401;28;19916;-68
2022/07/27 05:22:50;;;;;;;;;;;26.30;88.30;;;;;;5073893;28;19923;-68
2022/07/27 05:25:15;;;;;;;;;;;26.40;88.30;;;;;;5056343;28;19951;-68
2022/07/27 05:27:41;;;;;;;;;;;26.30;88.30;;;;;;5056231;28;19908;-68
2022/07/27 05:30:08;;;;;;;;;;;26.30;88.30;;;;;;5073936;28;19908;-68
2022/07/27 05:32:33;;;;;;;;;;;26.40;88.40;;;;;;5074450;28;20351;-69
2022/07/27 05:34:59;;;;;;;;;;;26.30;88.30;;;;;;5056056;28;19915;-68
2022/07/27 05:37:25;;;;;;;;;;;26.30;88.30;;;;;;5074118;28;19930;-68
2022/07/27 05:39:50;;;;;;;;;;;26.30;88.30;;;;;;5073854;28;20363;-68
2022/07/27 05:42:15;;;;;;;;;;;26.40;88.30;;;;;;5073987;28;20267;-69
2022/07/27 05:44:41;;;;;;;;;;;26.40;88.30;;;;;;5055938;28;19962;-68
2022/07/27 05:47:07;;;;;;;;;;;26.40;88.30;;;;;;5073810;28;19909;-68
2022/07/27 05:49:32;;;;;;;;;;;26.40;88.30;;;;;;5073771;28;20319;-69
2022/07/27 05:51:57;;;;;;;;;;;26.40;88.30;;;;;;5073651;28;19914;-69
2022/07/27 05:54:23;;;;;;;;;;;26.40;88.30;;;;;;5073660;28;19909;-68
2022/07/27 05:56:48;;;;;;;;;;;26.40;88.30;;;;;;5073408;28;20363;-69
2022/07/27 05:59:14;;;;;;;;;;;26.40;88.20;;;;;;5073465;28;19924;-69
2022/07/27 06:01:39;;;;;;;;;;;26.40;88.30;;;;;;5073420;28;19967;-69
2022/07/27 06:04:05;;;;;;;;;;;26.40;88.30;;;;;;5073437;28;19987;-68
2022/07/27 06:09:14;;;;;;;;;;;26.30;88.30;;;;;;5073769;28;19962;-68
2022/07/27 06:11:40;;;;;;;;;;;26.30;88.30;;;;;;5073322;28;19912;-68
2022/07/27 06:14:06;;;;;;;;;;;26.30;88.30;;;;;;5073543;28;19908;-69
2022/07/27 06:16:31;;;;;;;;;;;26.30;88.30;;;;;;5075741;28;19912;-68
2022/07/27 06:18:57;;;;;;;;;;;26.30;88.30;;;;;;5059576;28;19912;-68
2022/07/27 06:21:24;;;;;;;;;;;26.30;88.30;;;;;;5077640;28;19912;-68
2022/07/27 06:23:50;;;;;;;;;;;26.30;88.30;;;;;;5077450;28;19912;-68
2022/07/27 06:26:15;;;;;;;;;;;26.30;88.30;;;;;;5077074;28;20417;-68
2022/07/27 06:28:41;;;;;;;;;;;26.30;88.30;;;;;;5059285;28;19913;-69
2022/07/27 06:31:07;;;;;;;;;;;26.30;88.30;;;;;;5076865;28;19958;-69
2022/07/27 06:33:33;;;;;;;;;;;26.30;88.30;;;;;;5076854;28;19915;-69
2022/07/27 06:35:59;;;;;;;;;;;26.30;88.30;;;;;;5077831;28;19909;-68
2022/07/27 06:38:24;;;;;;;;;;;26.30;88.30;;;;;;5077354;28;20333;-68
2022/07/27 06:40:53;;;;;;;;;;;26.30;88.30;;;;;;5076883;28;19917;-67
2022/07/27 06:43:19;;;;;;;;;;;26.30;88.30;;;;;;5077234;28;19999;-69
2022/07/27 06:45:45;;;;;;;;;;;26.30;88.30;;;;;;5077528;28;20007;-69
2022/07/27 06:48:10;;;;;;;;;;;26.30;88.20;;;;;;5076873;28;19944;-69
2022/07/27 06:50:36;;;;;;;;;;;26.30;88.20;;;;;;5059439;28;19908;-69
2022/07/27 06:53:02;;;;;;;;;;;26.30;88.20;;;;;;5076818;28;19915;-68
2022/07/27 06:55:28;;;;;;;;;;;26.30;88.20;;;;;;5076674;28;19909;-69
2022/07/27 06:57:54;;;;;;;;;;;26.30;88.20;;;;;;5058820;28;19908;-69
2022/07/27 07:00:19;;;;;;;;;;;26.30;88.20;;;;;;5077043;28;19928;-69
2022/07/27 07:02:52;;;;;;;;;;;26.30;88.20;;;;;;5076995;28;19912;-69
2022/07/27 07:05:17;;;;;;;;;;;26.30;88.20;;;;;;5077175;28;19908;-69
2022/07/27 07:07:43;;;;;;;;;;;26.30;88.30;;;;;;5076501;28;19915;-69
2022/07/27 07:10:08;;;;;;;;;;;26.30;88.20;;;;;;5076518;28;19923;-68
2022/07/27 07:12:34;;;;;;;;;;;26.30;88.20;;;;;;5077197;28;20397;-69
2022/07/27 07:14:59;;;;;;;;;;;26.30;88.20;;;;;;5058934;28;19928;-68
2022/07/27 07:17:25;;;;;;;;;;;26.30;88.20;;;;;;5076310;28;19972;-68
2022/07/27 07:19:50;;;;;;;;;;;26.30;88.10;;;;;;5076298;28;19912;-69
2022/07/27 07:22:16;;;;;;;;;;;26.30;88.10;;;;;;5075952;28;19920;-69
2022/07/27 07:24:41;;;;;;;;;;;26.40;88.10;;;;;;5058610;28;19909;-69
2022/07/27 07:27:06;;;;;;;;;;;26.40;88.10;;;;;;5075137;28;20399;-69
2022/07/27 07:29:32;;;;;;;;;;;26.40;88.10;;;;;;5076021;28;19916;-69
2022/07/27 07:31:57;;;;;;;;;;;26.40;88.10;;;;;;5076425;28;19991;-67
2022/07/27 07:34:23;;;;;;;;;;;26.40;88.10;;;;;;5091919;28;19988;-69
2022/07/27 07:36:48;;;;;;;;;;;26.40;88.10;;;;;;5076608;28;19920;-69
2022/07/27 07:39:14;;;;;;;;;;;26.40;88.10;;;;;;5076133;28;19931;-69
2022/07/27 07:41:40;;;;;;;;;;;26.40;88.10;;;;;;5058342;28;20423;-69
2022/07/27 07:44:06;;;;;;;;;;;26.40;88.00;;;;;;5076075;28;19966;-69
2022/07/27 07:46:31;;;;;;;;;;;26.40;88.00;;;;;;5076117;28;20019;-70
2022/07/27 07:48:56;;;;;;;;;;;26.40;88.00;;;;;;5076221;28;20023;-69
2022/07/27 07:51:22;;;;;;;;;;;26.40;87.90;;;;;;5075995;28;19962;-69
2022/07/27 07:53:47;;;;;;;;;;;26.40;87.90;;;;;;5058096;28;20007;-69
2022/07/27 07:56:13;;;;;;;;;;;26.40;87.90;;;;;;5075813;28;19932;-70
2022/07/27 07:58:38;;;;;;;;;;;26.40;87.90;;;;;;5057817;28;20015;-69
2022/07/27 08:01:04;;;;;;;;;;;26.40;87.90;;;;;;5075794;28;19970;-67
2022/07/27 08:03:29;;;;;;;;;;;26.40;87.90;;;;;;5075282;28;19912;-68
2022/07/27 08:05:55;;;;;;;;;;;26.40;87.90;;;;;;5075700;28;19915;-68
2022/07/27 08:08:20;;;;;;;;;;;26.40;87.90;;;;;;5076081;28;20291;-68
2022/07/27 08:10:46;;;;;;;;;;;26.40;87.80;;;;;;5057652;28;19931;-68
2022/07/27 08:13:11;;;;;;;;;;;26.40;87.80;;;;;;5057765;28;20275;-68
2022/07/27 08:15:37;;;;;;;;;;;26.40;87.80;;;;;;5075468;28;20355;-68
2022/07/27 08:18:03;;;;;;;;;;;26.40;87.90;;;;;;5075721;28;20279;-70
2022/07/27 08:20:29;;;;;;;;;;;26.40;87.80;;;;;;5090849;28;19919;-70
2022/07/27 08:22:54;;;;;;;;;;;26.40;87.80;;;;;;5075232;28;19914;-69
2022/07/27 08:25:20;;;;;;;;;;;26.40;87.90;;;;;;5057543;28;19916;-70
2022/07/27 08:27:45;;;;;;;;;;;26.40;87.90;;;;;;5057333;28;19909;-69
2022/07/27 08:30:11;;;;;;;;;;;26.40;87.90;;;;;;5075347;28;20274;-70
2022/07/27 08:32:46;;;;;;;;;;;26.40;87.80;;;;;;5074997;28;19908;-69
2022/07/27 08:35:14;;;;;;;;;;;26.40;87.80;;;;;;5074685;28;19978;-70
2022/07/27 08:37:39;;;;;;;;;;;26.40;87.80;;;;;;5074716;28;19964;-69
2022/07/27 08:40:05;;;;;;;;;;;26.50;87.90;;;;;;5056806;28;19971;-69
2022/07/27 08:42:31;;;;;;;;;;;26.50;87.90;;;;;;5056974;28;20386;-69
2022/07/27 08:44:57;;;;;;;;;;;26.40;87.70;;;;;;5074953;28;20416;-69
2022/07/27 08:47:22;;;;;;;;;;;26.40;87.70;;;;;;5074883;28;19909;-70
2022/07/27 08:49:48;;;;;;;;;;;26.40;87.70;;;;;;5074650;28;19950;-69
2022/07/27 08:52:14;;;;;;;;;;;26.50;87.80;;;;;;5074744;28;19969;-69
2022/07/27 08:54:40;;;;;;;;;;;26.40;87.70;;;;;;5074453;28;19908;-69
2022/07/27 08:57:09;;;;;;;;;;;26.40;87.80;;;;;;5056760;28;19908;-69
2022/07/27 08:59:34;;;;;;;;;;;26.50;87.80;;;;;;5074326;28;19935;-69
2022/07/27 09:02:00;;;;;;;;;;;26.50;87.70;;;;;;5056237;28;19913;-69
2022/07/27 09:04:25;;;;;;;;;;;26.50;87.80;;;;;;5074864;28;19915;-70
2022/07/27 09:06:51;;;;;;;;;;;26.50;87.80;;;;;;5074166;28;19995;-69
2022/07/27 09:09:18;;;;;;;;;;;26.50;87.80;;;;;;5074713;28;19908;-70
2022/07/27 09:11:44;;;;;;;;;;;26.40;87.70;;;;;;5074075;28;19962;-70
2022/07/27 09:14:11;;;;;;;;;;;26.50;87.80;;;;;;5074076;28;20318;-70
2022/07/27 09:16:37;;;;;;;;;;;26.50;87.80;;;;;;5074079;28;19951;-69
2022/07/27 09:19:04;;;;;;;;;;;26.50;87.80;;;;;;5074106;28;20021;-69
2022/07/27 09:21:30;;;;;;;;;;;26.50;87.80;;;;;;5074241;28;19913;-69
2022/07/27 09:23:56;;;;;;;;;;;26.50;87.80;;;;;;5074272;28;19932;-69
2022/07/27 09:26:22;;;;;;;;;;;26.50;87.90;;;;;;5074123;28;19991;-70
2022/07/27 09:28:56;;;;;;;;;;;26.50;87.80;;;;;;5074232;28;19916;-69
2022/07/27 09:31:21;;;;;;;;;;;26.50;87.80;;;;;;5074291;28;19913;-69
2022/07/27 09:33:48;;;;;;;;;;;26.50;87.80;;;;;;5074271;28;19935;-69
2022/07/27 09:36:14;;;;;;;;;;;26.50;87.80;;;;;;5056157;28;19967;-69
2022/07/27 09:38:55;;;;;;;;;;;26.50;87.80;;;;;;5073855;28;19917;-69
2022/07/27 09:41:21;;;;;;;;;;;26.50;87.80;;;;;;5073595;28;19917;-70
2022/07/27 09:43:51;;;;;;;;;;;26.50;87.80;;;;;;5073646;28;20336;-69
2022/07/27 09:46:27;;;;;;;;;;;26.50;87.80;;;;;;5055435;28;20438;-69
2022/07/27 09:48:52;;;;;;;;;;;26.50;87.70;;;;;;5073323;28;20332;-69
2022/07/27 09:51:18;;;;;;;;;;;26.50;87.80;;;;;;5072959;28;19962;-69
2022/07/27 09:53:44;;;;;;;;;;;26.50;87.80;;;;;;5073384;28;19916;-69
2022/07/27 09:56:12;;;;;;;;;;;26.50;87.80;;;;;;5055848;28;20373;-69
2022/07/27 09:58:37;;;;;;;;;;;26.50;87.80;;;;;;5073395;28;20332;-68
2022/07/27 10:01:02;;;;;;;;;;;26.50;87.80;;;;;;5074113;28;20000;-68
2022/07/27 10:03:28;;;;;;;;;;;26.50;87.80;;;;;;5073411;28;20397;-68
2022/07/27 10:05:54;;;;;;;;;;;26.50;87.80;;;;;;5073456;28;19961;-68
2022/07/27 10:08:19;;;;;;;;;;;26.50;87.80;;;;;;5073350;28;19920;-68
2022/07/27 10:10:45;;;;;;;;;;;26.50;87.80;;;;;;5073395;28;19908;-68
2022/07/27 10:13:10;;;;;;;;;;;26.50;87.80;;;;;;5073044;28;20381;-68
2022/07/27 10:15:38;;;;;;;;;;;26.50;87.80;;;;;;5073838;28;19916;-69
2022/07/27 10:18:09;;;;;;;;;;;26.50;87.80;;;;;;5073469;28;19909;-68
2022/07/27 10:20:37;;;;;;;;;;;26.50;87.80;;;;;;5073143;28;19916;-68
2022/07/27 10:23:02;;;;;;;;;;;26.50;87.80;;;;;;5073524;28;19921;-68
2022/07/27 10:25:29;;;;;;;;;;;26.50;87.80;;;;;;5055385;28;19912;-67
2022/07/27 10:28:11;;;;;;;;;;;26.50;87.60;;;;;;5073401;28;19999;-68
2022/07/27 10:30:37;;;;;;;;;;;26.50;87.60;;;;;;5072938;28;19995;-68
2022/07/27 10:33:32;;;;;;;;;;;26.50;87.80;;;;;;5072857;28;20323;-69
2022/07/27 10:35:57;;;;;;;;;;;26.50;87.80;;;;;;5073219;28;19962;-69
2022/07/27 10:38:23;;;;;;;;;;;26.50;87.70;;;;;;5073003;28;19912;-69
2022/07/27 10:41:08;;;;;;;;;;;26.50;87.70;;;;;;5055416;28;19912;-69
2022/07/27 10:43:34;;;;;;;;;;;26.50;87.80;;;;;;5073272;28;19958;-69
2022/07/27 10:45:59;;;;;;;;;;;26.50;87.80;;;;;;5073119;28;19909;-69
2022/07/27 10:48:34;;;;;;;;;;;26.50;87.80;;;;;;5073235;28;19909;-70
2022/07/27 10:51:00;;;;;;;;;;;26.50;87.80;;;;;;5073076;28;20417;-69
2022/07/27 10:53:33;;;;;;;;;;;26.50;87.80;;;;;;5055168;28;19908;-69
2022/07/27 10:55:59;;;;;;;;;;;26.50;87.80;;;;;;5072826;28;19908;-69
2022/07/27 10:58:27;;;;;;;;;;;26.50;87.80;;;;;;5073296;28;19909;-69
2022/07/27 11:00:52;;;;;;;;;;;26.50;87.70;;;;;;5072973;28;19927;-69
2022/07/27 11:03:51;;;;;;;;;;;26.50;87.80;;;;;;5076285;28;19908;-69
2022/07/27 11:06:21;;;;;;;;;;;26.50;87.80;;;;;;5051156;28;19908;-70
2022/07/27 11:08:47;;;;;;;;;;;26.50;87.80;;;;;;5058452;28;19909;-70
2022/07/27 11:11:20;;;;;;;;;;;26.50;87.80;;;;;;5077024;28;20003;-69
2022/07/27 11:13:46;;;;;;;;;;;26.50;87.80;;;;;;5076822;28;19909;-69
2022/07/27 11:16:14;;;;;;;;;;;26.50;87.80;;;;;;5076614;28;19909;-69
2022/07/27 11:18:41;;;;;;;;;;;26.50;87.80;;;;;;5076430;28;19915;-69
2022/07/27 11:21:13;;;;;;;;;;;26.50;87.80;;;;;;5058807;28;20000;-69
2022/07/27 11:23:39;;;;;;;;;;;26.50;87.80;;;;;;5076531;28;20271;-69
2022/07/27 11:26:05;;;;;;;;;;;26.50;87.80;;;;;;5076484;28;19908;-69
2022/07/27 11:28:31;;;;;;;;;;;26.50;87.80;;;;;;5058586;28;19974;-69
2022/07/27 11:30:57;;;;;;;;;;;26.50;87.80;;;;;;5076384;28;19908;-69
2022/07/27 11:33:23;;;;;;;;;;;26.50;87.80;;;;;;5076344;28;19915;-70
2022/07/27 11:35:50;;;;;;;;;;;26.50;87.70;;;;;;5075964;28;20359;-70
2022/07/27 11:38:16;;;;;;;;;;;26.50;87.70;;;;;;5076061;28;19995;-70
2022/07/27 11:40:43;;;;;;;;;;;26.50;87.70;;;;;;5058267;28;20271;-70
2022/07/27 11:43:08;;;;;;;;;;;26.50;88.30;;;;;;5058110;28;20390;-69
2022/07/27 11:45:38;;;;;;;;;;;26.50;87.80;;;;;;5076385;28;19956;-70
2022/07/27 11:48:06;;;;;;;;;;;26.50;87.80;;;;;;5058242;28;19977;-69
2022/07/27 11:50:32;;;;;;;;;;;26.50;87.70;;;;;;5076079;28;19958;-69
2022/07/27 11:52:57;;;;;;;;;;;26.50;87.70;;;;;;5075746;28;19912;-69
2022/07/27 11:55:23;;;;;;;;;;;26.50;87.70;;;;;;5058027;28;20050;-69
2022/07/27 11:57:48;;;;;;;;;;;26.50;87.70;;;;;;5076083;28;19909;-68
2022/07/27 12:00:14;;;;;;;;;;;26.50;87.70;;;;;;5075651;28;19950;-69
2022/07/27 12:02:49;;;;;;;;;;;26.50;87.70;;;;;;5075501;28;19912;-68
2022/07/27 12:05:14;;;;;;;;;;;26.50;87.80;;;;;;5076144;28;19909;-69
2022/07/27 12:07:40;;;;;;;;;;;26.50;87.70;;;;;;5075290;28;20401;-69
2022/07/27 12:10:06;;;;;;;;;;;26.50;87.80;;;;;;5075864;28;19912;-69
2022/07/27 12:12:33;;;;;;;;;;;26.50;87.70;;;;;;5057398;28;19935;-68
2022/07/27 12:15:18;;;;;;;;;;;26.50;87.80;;;;;;5075331;28;20318;-68
2022/07/27 12:17:46;;;;;;;;;;;26.50;87.80;;;;;;5075337;28;19909;-68
2022/07/27 12:20:12;;;;;;;;;;;26.50;87.80;;;;;;5075335;28;19912;-69
2022/07/27 12:22:39;;;;;;;;;;;26.50;87.80;;;;;;5075235;28;19919;-68
2022/07/27 12:25:10;;;;;;;;;;;26.50;87.80;;;;;;5057414;28;19909;-69
2022/07/27 12:27:36;;;;;;;;;;;26.50;87.70;;;;;;5074842;28;20314;-70
2022/07/27 12:30:12;;;;;;;;;;;26.50;88.20;;;;;;5074678;28;19909;-68
2022/07/27 12:32:42;;;;;;;;;;;26.50;87.70;;;;;;5075298;28;20326;-69
2022/07/27 12:35:28;;;;;;;;;;;26.50;87.70;;;;;;5075126;28;19953;-68
2022/07/27 12:37:58;;;;;;;;;;;26.50;87.80;;;;;;5075031;28;19912;-68
2022/07/27 12:40:23;;;;;;;;;;;26.50;87.80;;;;;;5075067;28;19982;-68
2022/07/27 12:42:59;;;;;;;;;;;26.50;87.70;;;;;;5057095;28;20355;-68
2022/07/27 12:45:29;;;;;;;;;;;26.50;87.80;;;;;;5075171;28;20000;-69
2022/07/27 12:48:02;;;;;;;;;;;26.50;87.80;;;;;;5057108;28;19908;-68
2022/07/27 12:50:28;;;;;;;;;;;26.50;87.70;;;;;;5074720;28;19909;-69
2022/07/27 12:52:53;;;;;;;;;;;26.50;87.70;;;;;;5074892;28;20314;-68
2022/07/27 12:55:20;;;;;;;;;;;26.50;87.60;;;;;;5074466;28;19917;-69
2022/07/27 12:57:45;;;;;;;;;;;26.50;87.70;;;;;;5074460;28;19908;-68
2022/07/27 13:00:13;;;;;;;;;;;26.50;87.70;;;;;;5074905;28;19927;-69
2022/07/27 13:02:39;;;;;;;;;;;26.50;87.70;;;;;;5056654;28;20227;-68
2022/07/27 13:05:07;;;;;;;;;;;26.50;87.70;;;;;;5074191;28;19915;-68
2022/07/27 13:07:32;;;;;;;;;;;26.50;87.70;;;;;;5074898;28;20065;-68
2022/07/27 13:09:58;;;;;;;;;;;26.50;87.70;;;;;;5074508;28;20375;-69
2022/07/27 13:12:24;;;;;;;;;;;26.50;87.70;;;;;;5074399;28;19944;-69
2022/07/27 13:14:49;;;;;;;;;;;26.50;87.70;;;;;;5056301;28;20298;-69
2022/07/27 13:17:15;;;;;;;;;;;26.50;87.70;;;;;;5074327;28;20377;-68
2022/07/27 13:19:40;;;;;;;;;;;26.50;87.60;;;;;;5074147;28;19912;-69
2022/07/27 13:22:06;;;;;;;;;;;26.40;87.60;;;;;;5074596;28;19916;-68
2022/07/27 13:24:31;;;;;;;;;;;26.50;87.50;;;;;;5073746;28;20382;-68
2022/07/27 13:26:57;;;;;;;;;;;26.50;87.60;;;;;;5073611;28;19908;-69
2022/07/27 13:29:23;;;;;;;;;;;26.50;87.60;;;;;;5074263;28;19919;-68
2022/07/27 13:31:48;;;;;;;;;;;26.50;87.60;;;;;;5074083;28;19927;-69
2022/07/27 13:34:14;;;;;;;;;;;26.50;87.60;;;;;;5055550;28;19961;-67
2022/07/27 13:36:39;;;;;;;;;;;26.50;87.60;;;;;;5055910;28;19962;-68
2022/07/27 13:39:06;;;;;;;;;;;26.50;87.60;;;;;;5055973;28;20350;-68
2022/07/27 13:41:31;;;;;;;;;;;26.50;87.50;;;;;;5055822;28;20282;-68
2022/07/27 13:43:57;;;;;;;;;;;26.50;87.60;;;;;;5073620;28;19991;-69
2022/07/27 13:46:22;;;;;;;;;;;26.50;87.50;;;;;;5073459;28;19909;-69
2022/07/27 13:48:47;;;;;;;;;;;26.50;87.50;;;;;;5055685;28;19909;-69
2022/07/27 13:51:13;;;;;;;;;;;26.50;87.50;;;;;;5073136;28;19947;-69
2022/07/27 13:53:38;;;;;;;;;;;26.50;87.50;;;;;;5073881;28;20262;-68
2022/07/27 13:56:06;;;;;;;;;;;26.50;87.40;;;;;;5073297;28;20443;-68
2022/07/27 13:58:31;;;;;;;;;;;26.50;87.30;;;;;;5073133;28;20006;-67
2022/07/27 14:00:57;;;;;;;;;;;26.50;87.50;;;;;;5073774;28;19912;-68
2022/07/27 14:03:22;;;;;;;;;;;26.50;87.50;;;;;;5055497;28;19908;-68
2022/07/27 14:05:48;;;;;;;;;;;26.40;87.50;;;;;;5055628;28;19908;-68
2022/07/27 14:08:13;;;;;;;;;;;26.50;87.60;;;;;;5073300;28;20359;-69
2022/07/27 14:10:40;;;;;;;;;;;26.50;87.60;;;;;;5073910;28;20022;-68
2022/07/27 14:13:07;;;;;;;;;;;26.50;87.60;;;;;;5055591;28;19909;-68
2022/07/27 14:15:32;;;;;;;;;;;26.50;87.60;;;;;;5073594;28;19931;-68
2022/07/27 14:17:58;;;;;;;;;;;26.50;87.60;;;;;;5055639;28;19908;-68